createdAt,value
2023-03-12T00:01:21.349Z,100.00
2023-03-12T00:03:50.380Z,100.00
2023-03-12T00:06:19.545Z,100.00
2023-03-12T00:08:48.661Z,100.00
2023-03-12T00:11:19.476Z,100.00
2023-03-12T00:13:52.673Z,100.00
2023-03-12T00:16:22.348Z,100.00
2023-03-12T00:18:52.889Z,100.00
2023-03-12T00:21:22.475Z,100.00
2023-03-12T00:23:51.887Z,100.00
2023-03-12T00:26:21.996Z,100.00
2023-03-12T00:28:51.724Z,100.00
2023-03-12T00:31:23.943Z,100.00
2023-03-12T00:33:52.165Z,100.00
2023-03-12T00:36:24.992Z,100.00
2023-03-12T00:38:54.573Z,100.00
2023-03-12T00:41:24.180Z,100.00
2023-03-12T00:43:53.050Z,100.00
2023-03-12T00:46:21.882Z,100.00
2023-03-12T00:48:50.595Z,100.00
2023-03-12T00:51:18.969Z,100.00
2023-03-12T00:53:47.268Z,100.00
2023-03-12T00:56:15.692Z,100.00
2023-03-12T00:58:43.848Z,100.00
2023-03-12T01:01:12.551Z,100.00
2023-03-12T01:03:40.948Z,100.00
2023-03-12T01:06:09.330Z,100.00
2023-03-12T01:08:39.657Z,100.00
2023-03-12T01:11:07.944Z,100.00
2023-03-12T01:13:36.281Z,100.00
2023-03-12T01:16:04.958Z,100.00
2023-03-12T01:18:33.083Z,100.00
2023-03-12T01:21:01.248Z,100.00
2023-03-12T01:23:29.792Z,100.00
2023-03-12T01:25:58.475Z,100.00
2023-03-12T01:28:27.129Z,100.00
2023-03-12T01:30:55.307Z,100.00
2023-03-12T01:33:23.560Z,100.00
2023-03-12T01:35:51.865Z,100.00
2023-03-12T01:38:21.028Z,100.00
2023-03-12T01:40:50.705Z,100.00
2023-03-12T01:43:39.344Z,100.00
2023-03-12T01:46:27.776Z,100.00
2023-03-12T01:49:02.394Z,100.00
2023-03-12T01:52:00.146Z,100.00
2023-03-12T01:54:47.749Z,100.00
2023-03-12T01:57:21.177Z,100.00
2023-03-12T01:59:54.449Z,100.00
2023-03-12T02:02:27.261Z,100.00
2023-03-12T02:05:22.395Z,100.00
2023-03-12T02:07:50.887Z,100.00
2023-03-12T02:10:19.769Z,100.00
2023-03-12T02:12:47.952Z,100.00
2023-03-12T02:15:16.976Z,100.00
2023-03-12T02:17:45.252Z,100.00
2023-03-12T02:20:26.868Z,100.00
2023-03-12T02:23:05.874Z,100.00
2023-03-12T02:25:41.019Z,100.00
2023-03-12T02:28:10.753Z,100.00
2023-03-12T02:30:43.010Z,100.00
2023-03-12T02:33:16.257Z,100.00
2023-03-12T02:35:47.186Z,100.00
2023-03-12T02:38:41.209Z,100.00
2023-03-12T02:41:25.519Z,100.00
2023-03-12T02:44:04.520Z,100.00
2023-03-12T02:46:36.078Z,100.00
2023-03-12T02:49:04.604Z,100.00
2023-03-12T02:51:32.788Z,100.00
2023-03-12T02:54:01.054Z,100.00
2023-03-12T02:56:31.437Z,100.00
2023-03-12T02:59:01.521Z,100.00
2023-03-12T03:01:34.349Z,100.00
2023-03-12T03:04:05.265Z,100.00
2023-03-12T03:06:35.726Z,100.00
2023-03-12T03:09:05.528Z,100.00
2023-03-12T03:11:33.994Z,100.00
2023-03-12T03:14:04.451Z,100.00
2023-03-12T03:16:33.428Z,100.00
2023-03-12T03:19:02.058Z,100.00
2023-03-12T03:21:30.822Z,100.00
2023-03-12T03:23:59.633Z,100.00
2023-03-12T03:26:28.017Z,100.00
2023-03-12T03:28:56.705Z,100.00
2023-03-12T03:31:25.006Z,100.00
2023-03-12T03:33:53.306Z,100.00
2023-03-12T03:36:23.390Z,100.00
2023-03-12T03:38:58.405Z,100.00
2023-03-12T03:41:27.030Z,100.00
2023-03-12T03:43:58.508Z,100.00
2023-03-12T03:46:27.015Z,100.00
2023-03-12T03:49:04.950Z,100.00
2023-03-12T03:51:33.765Z,100.00
2023-03-12T03:54:06.081Z,100.00
2023-03-12T03:56:35.047Z,100.00
2023-03-12T03:59:04.468Z,100.00
2023-03-12T04:01:33.984Z,100.00
2023-03-12T04:04:04.130Z,100.00
2023-03-12T04:06:33.560Z,100.00
2023-03-12T04:09:01.880Z,100.00
2023-03-12T04:11:30.810Z,100.00
2023-03-12T04:13:59.335Z,100.00
2023-03-12T04:16:30.041Z,100.00
2023-03-12T04:18:58.733Z,100.00
2023-03-12T04:21:27.392Z,100.00
2023-03-12T04:23:55.836Z,100.00
2023-03-12T04:26:26.916Z,100.00
2023-03-12T04:28:57.159Z,100.00
2023-03-12T04:31:25.954Z,100.00
2023-03-12T04:33:54.235Z,100.00
2023-03-12T04:36:25.612Z,100.00
2023-03-12T04:38:56.431Z,100.00
2023-03-12T04:41:28.319Z,100.00
2023-03-12T04:44:02.599Z,100.00
2023-03-12T04:46:31.843Z,100.00
2023-03-12T04:49:02.772Z,100.00
2023-03-12T04:51:32.398Z,100.00
2023-03-12T04:54:02.737Z,100.00
2023-03-12T04:56:31.050Z,100.00
2023-03-12T04:58:59.837Z,100.00
2023-03-12T05:01:32.421Z,100.00
2023-03-12T05:04:03.161Z,100.00
2023-03-12T05:06:32.202Z,100.00
2023-03-12T05:09:00.562Z,100.00
2023-03-12T05:11:29.525Z,100.00
2023-03-12T05:13:57.795Z,100.00
2023-03-12T05:16:27.999Z,100.00
2023-03-12T05:18:56.504Z,100.00
2023-03-12T05:21:25.361Z,100.00
2023-03-12T05:23:55.458Z,100.00
2023-03-12T05:26:31.735Z,100.00
2023-03-12T05:29:19.815Z,100.00
2023-03-12T05:31:48.297Z,100.00
2023-03-12T05:34:17.486Z,100.00
2023-03-12T05:36:46.978Z,100.00
2023-03-12T05:39:18.018Z,100.00
2023-03-12T05:41:46.614Z,100.00
2023-03-12T05:44:18.320Z,100.00
2023-03-12T05:46:52.031Z,100.00
2023-03-12T05:49:21.288Z,100.00
2023-03-12T05:51:50.782Z,100.00
2023-03-12T05:54:20.342Z,100.00
2023-03-12T05:56:49.387Z,100.00
2023-03-12T05:59:17.848Z,100.00
2023-03-12T06:01:46.965Z,100.00
2023-03-12T06:04:15.585Z,100.00
2023-03-12T06:06:43.842Z,100.00
2023-03-12T06:09:12.329Z,100.00
2023-03-12T06:11:40.701Z,100.00
2023-03-12T06:14:09.676Z,100.00
2023-03-12T06:16:39.013Z,100.00
2023-03-12T06:19:08.430Z,100.00
2023-03-12T06:21:36.728Z,100.00
2023-03-12T06:24:07.625Z,100.00
2023-03-12T06:26:43.566Z,99.77
2023-03-12T06:29:12.021Z,99.31
2023-03-12T06:31:42.197Z,98.53
2023-03-12T06:34:10.766Z,98.39
2023-03-12T06:36:39.074Z,97.99
2023-03-12T06:39:08.417Z,98.07
2023-03-12T06:41:37.070Z,97.74
2023-03-12T06:44:06.649Z,97.13
2023-03-12T06:46:35.259Z,96.09
2023-03-12T06:49:04.075Z,95.90
2023-03-12T06:51:32.830Z,95.03
2023-03-12T06:54:16.854Z,94.78
2023-03-12T06:56:46.118Z,93.96
2023-03-12T06:59:14.394Z,93.61
2023-03-12T07:01:42.620Z,93.11
2023-03-12T07:04:10.904Z,92.90
2023-03-12T07:06:39.964Z,91.25
2023-03-12T07:09:09.494Z,89.60
2023-03-12T07:11:38.519Z,89.27
2023-03-12T07:14:21.526Z,89.86
2023-03-12T07:16:50.121Z,89.54
2023-03-12T07:19:19.565Z,88.30
2023-03-12T07:21:47.914Z,86.94
2023-03-12T07:24:16.172Z,86.65
2023-03-12T07:26:44.457Z,86.28
2023-03-12T07:29:12.815Z,85.89
2023-03-12T07:31:41.139Z,84.35
2023-03-12T07:34:09.499Z,84.46
2023-03-12T07:36:38.157Z,83.35
2023-03-12T07:39:06.645Z,81.60
2023-03-12T07:41:37.433Z,81.36
2023-03-12T07:44:06.385Z,80.21
2023-03-12T07:46:34.832Z,80.05
2023-03-12T07:49:04.546Z,79.11
2023-03-12T07:51:35.962Z,77.10
2023-03-12T07:54:04.405Z,78.04
2023-03-12T07:56:35.195Z,77.90
2023-03-12T07:59:05.790Z,77.56
2023-03-12T08:01:34.414Z,75.56
2023-03-12T08:04:02.956Z,74.88
2023-03-12T08:06:31.749Z,74.70
2023-03-12T08:09:00.012Z,75.64
2023-03-12T08:11:28.507Z,75.29
2023-03-12T08:13:56.749Z,74.65
2023-03-12T08:16:28.586Z,76.26
2023-03-12T08:18:57.292Z,75.37
2023-03-12T08:21:25.610Z,74.74
2023-03-12T08:23:53.918Z,73.92
2023-03-12T08:26:22.238Z,73.74
2023-03-12T08:28:51.857Z,72.87
2023-03-12T08:31:20.097Z,73.42
2023-03-12T08:33:48.415Z,73.68
2023-03-12T08:36:18.748Z,73.00
2023-03-12T08:38:48.313Z,70.94
2023-03-12T08:41:17.740Z,71.53
2023-03-12T08:43:46.964Z,72.24
2023-03-12T08:46:15.638Z,71.31
2023-03-12T08:48:44.080Z,71.30
2023-03-12T08:51:17.249Z,71.45
2023-03-12T08:53:45.558Z,71.18
2023-03-12T08:56:13.907Z,68.88
2023-03-12T08:58:42.264Z,68.64
2023-03-12T09:01:13.094Z,68.77
2023-03-12T09:03:41.980Z,68.47
2023-03-12T09:06:19.894Z,66.86
2023-03-12T09:08:49.535Z,66.69
2023-03-12T09:11:18.132Z,64.76
2023-03-12T09:16:34.904Z,65.40
2023-03-12T09:19:03.801Z,63.98
2023-03-12T09:21:32.059Z,62.67
2023-03-12T09:24:00.539Z,62.54
2023-03-12T09:26:28.983Z,62.58
2023-03-12T09:28:58.005Z,63.64
2023-03-12T09:31:26.906Z,63.29
2023-03-12T09:33:55.199Z,64.56
2023-03-12T09:36:23.445Z,60.91
2023-03-12T09:38:51.715Z,61.08
2023-03-12T09:41:23.423Z,62.16
2023-03-12T09:44:01.828Z,62.79
2023-03-12T09:46:37.149Z,62.65
2023-03-12T09:52:36.559Z,59.51
2023-03-12T09:55:12.644Z,61.59
2023-03-12T09:57:45.520Z,61.27
2023-03-12T10:00:25.141Z,58.09
2023-03-12T10:03:02.632Z,57.66
2023-03-12T10:05:30.945Z,59.38
2023-03-12T10:08:25.284Z,60.64
2023-03-12T10:11:00.124Z,58.70
2023-03-12T10:13:54.361Z,59.64
2023-03-12T10:16:39.774Z,56.87
2023-03-12T10:19:26.343Z,57.48
2023-03-12T10:22:34.755Z,58.30
2023-03-12T10:25:30.840Z,56.64
2023-03-12T10:28:19.888Z,55.35
2023-03-12T10:31:04.737Z,56.15
2023-03-12T10:34:00.461Z,56.68
2023-03-12T10:36:40.178Z,58.25
2023-03-12T10:39:18.326Z,56.54
2023-03-12T10:41:48.651Z,54.64
2023-03-12T10:44:21.983Z,53.21
2023-03-12T10:47:08.286Z,54.32
2023-03-12T10:49:42.533Z,52.76
2023-03-12T10:52:19.032Z,52.46
2023-03-12T10:54:52.993Z,52.64
2023-03-12T10:57:21.705Z,51.75
2023-03-12T10:59:51.466Z,54.22
2023-03-12T11:02:41.992Z,57.12
2023-03-12T11:05:54.873Z,56.61
2023-03-12T11:08:30.495Z,53.45
2023-03-12T11:11:05.228Z,52.49
2023-03-12T11:14:15.884Z,51.23
2023-03-12T11:16:51.033Z,52.78
2023-03-12T11:19:32.099Z,49.94
2023-03-12T11:22:09.049Z,50.23
2023-03-12T11:25:00.112Z,49.70
2023-03-12T11:27:49.894Z,51.53
2023-03-12T11:30:33.686Z,52.09
2023-03-12T11:33:04.230Z,50.96
2023-03-12T11:35:49.652Z,49.87
2023-03-12T11:38:57.313Z,50.37
2023-03-12T11:41:41.028Z,48.99
2023-03-12T11:44:24.534Z,47.22
2023-03-12T11:47:18.521Z,48.51
2023-03-12T11:50:21.491Z,50.44
2023-03-12T11:53:03.126Z,48.91
2023-03-12T11:55:55.689Z,47.32
2023-03-12T11:58:49.089Z,49.37
2023-03-12T12:01:34.168Z,52.19
2023-03-12T12:04:20.785Z,51.16
2023-03-12T12:06:54.835Z,49.69
2023-03-12T12:09:38.942Z,48.55
2023-03-12T12:12:26.833Z,50.10
2023-03-12T12:15:33.112Z,50.80
2023-03-12T12:18:16.719Z,52.92
2023-03-12T12:20:57.521Z,52.91
2023-03-12T12:23:44.315Z,52.46
2023-03-12T12:26:14.136Z,52.83
2023-03-12T12:28:42.392Z,51.57
2023-03-12T12:31:29.300Z,49.17
2023-03-12T12:34:35.566Z,49.19
2023-03-12T12:37:22.371Z,48.11
2023-03-12T12:39:59.899Z,48.95
2023-03-12T12:42:33.022Z,49.76
2023-03-12T12:45:10.967Z,49.74
2023-03-12T12:48:01.495Z,48.31
2023-03-12T12:50:37.740Z,50.93
2023-03-12T12:53:39.208Z,48.99
2023-03-12T12:57:05.238Z,49.72
2023-03-12T13:00:04.725Z,49.08
2023-03-12T13:02:39.902Z,48.10
2023-03-12T13:05:26.008Z,46.96
2023-03-12T13:07:57.900Z,48.00
2023-03-12T13:10:48.592Z,47.20
2023-03-12T13:13:28.985Z,46.46
2023-03-12T13:16:35.989Z,47.36
2023-03-12T13:19:22.640Z,48.10
2023-03-12T13:22:08.654Z,48.48
2023-03-12T13:25:18.905Z,47.18
2023-03-12T13:27:47.461Z,47.01
2023-03-12T13:30:34.862Z,47.21
2023-03-12T13:33:12.578Z,48.25
2023-03-12T13:36:15.706Z,48.07
2023-03-12T13:38:58.966Z,45.58
2023-03-12T13:41:37.997Z,45.76
2023-03-12T13:44:29.114Z,46.10
2023-03-12T13:47:30.523Z,46.98
2023-03-12T13:50:08.357Z,48.49
2023-03-12T13:52:39.672Z,49.61
2023-03-12T13:55:14.229Z,47.67
2023-03-12T13:57:48.636Z,47.54
2023-03-12T14:00:46.677Z,48.25
2023-03-12T14:03:21.984Z,47.87
2023-03-12T14:06:09.361Z,47.41
2023-03-12T14:09:12.458Z,47.75
2023-03-12T14:11:50.766Z,47.89
2023-03-12T14:14:29.841Z,46.51
2023-03-12T14:17:01.544Z,47.34
2023-03-12T14:19:33.130Z,48.19
2023-03-12T14:22:05.952Z,48.65
2023-03-12T14:24:41.633Z,50.39
2023-03-12T14:27:21.856Z,49.99
2023-03-12T14:29:58.172Z,49.91
2023-03-12T14:32:31.993Z,49.76
2023-03-12T14:35:21.121Z,49.58
2023-03-12T14:38:20.122Z,50.32
2023-03-12T14:40:53.485Z,50.29
2023-03-12T14:43:34.482Z,50.18
2023-03-12T14:46:06.534Z,49.68
2023-03-12T14:48:37.838Z,50.04
2023-03-12T14:51:08.178Z,51.04
2023-03-12T14:53:38.352Z,51.03
2023-03-12T14:56:21.034Z,50.03
2023-03-12T14:58:50.637Z,50.68
2023-03-12T15:01:30.226Z,51.00
2023-03-12T15:04:05.256Z,49.78
2023-03-12T15:06:56.852Z,50.53
2023-03-12T15:09:30.674Z,52.08
2023-03-12T15:12:06.112Z,51.82
2023-03-12T15:14:42.426Z,50.82
2023-03-12T15:17:22.393Z,51.70
2023-03-12T15:19:54.807Z,52.53
2023-03-12T15:22:28.005Z,51.66
2023-03-12T15:25:03.233Z,52.60
2023-03-12T15:27:33.944Z,52.41
2023-03-12T15:30:22.002Z,52.23
2023-03-12T15:33:21.991Z,53.00
2023-03-12T15:36:00.017Z,52.94
2023-03-12T15:38:31.411Z,53.44
2023-03-12T15:41:06.741Z,54.20
2023-03-12T15:43:37.757Z,54.80
2023-03-12T15:46:07.226Z,54.79
2023-03-12T15:48:41.169Z,55.01
2023-03-12T15:51:34.405Z,54.62
2023-03-12T15:54:27.269Z,54.25
2023-03-12T15:57:23.227Z,54.47
2023-03-12T16:00:12.152Z,55.47
2023-03-12T16:02:47.055Z,56.05
2023-03-12T16:05:15.484Z,55.95
2023-03-12T16:07:43.655Z,56.53
2023-03-12T16:10:17.843Z,57.11
2023-03-12T16:12:47.450Z,57.16
2023-03-12T16:15:28.018Z,57.79
2023-03-12T16:17:56.525Z,57.41
2023-03-12T16:20:24.819Z,57.34
2023-03-12T16:22:54.148Z,57.07
2023-03-12T16:25:24.007Z,57.44
2023-03-12T16:27:57.035Z,57.69
2023-03-12T16:30:38.001Z,57.75
2023-03-12T16:33:09.200Z,57.85
2023-03-12T16:35:38.201Z,58.17
2023-03-12T16:38:07.426Z,58.51
2023-03-12T16:40:39.242Z,58.53
2023-03-12T16:43:16.010Z,58.96
2023-03-12T16:45:47.146Z,59.22
2023-03-12T16:48:19.213Z,59.94
2023-03-12T16:50:51.013Z,60.36
2023-03-12T16:53:19.995Z,60.26
2023-03-12T16:56:01.367Z,60.27
2023-03-12T16:58:30.716Z,60.12
2023-03-12T17:01:00.213Z,60.07
2023-03-12T17:03:44.328Z,59.95
2023-03-12T17:06:22.101Z,60.09
2023-03-12T17:08:51.432Z,60.19
2023-03-12T17:11:30.251Z,60.59
2023-03-12T17:14:01.440Z,61.09
2023-03-12T17:16:30.372Z,61.06
2023-03-12T17:18:58.688Z,61.10
2023-03-12T17:21:27.051Z,61.82
2023-03-12T17:23:55.421Z,62.01
2023-03-12T17:26:24.120Z,62.42
2023-03-12T17:28:52.616Z,62.82
2023-03-12T17:31:25.119Z,63.24
2023-03-12T17:33:53.551Z,63.32
2023-03-12T17:36:21.853Z,63.17
2023-03-12T17:38:51.077Z,62.87
2023-03-12T17:41:26.551Z,63.41
2023-03-12T17:43:58.566Z,64.00
2023-03-12T17:46:27.280Z,64.70
2023-03-12T17:48:55.808Z,64.70
2023-03-12T17:51:26.684Z,65.07
2023-03-12T17:53:55.069Z,65.16
2023-03-12T17:56:23.620Z,65.12
2023-03-12T17:58:51.967Z,64.99
2023-03-12T18:01:20.483Z,64.95
2023-03-12T18:03:51.251Z,65.81
2023-03-12T18:06:20.024Z,67.01
2023-03-12T18:08:48.450Z,67.94
2023-03-12T18:11:16.935Z,68.10
2023-03-12T18:13:47.631Z,67.81
2023-03-12T18:16:17.012Z,67.36
2023-03-12T18:18:45.242Z,67.11
2023-03-12T18:21:13.492Z,66.90
2023-03-12T18:23:43.978Z,66.37
2023-03-12T18:26:12.517Z,66.12
2023-03-12T18:28:40.762Z,66.09
2023-03-12T18:31:09.720Z,66.09
2023-03-12T18:33:39.310Z,66.35
2023-03-12T18:36:08.555Z,66.40
2023-03-12T18:38:37.040Z,66.46
2023-03-12T18:41:08.418Z,66.14
2023-03-12T18:43:40.263Z,65.97
2023-03-12T18:46:09.296Z,66.06
2023-03-12T18:48:37.799Z,66.19
2023-03-12T18:51:06.101Z,66.12
2023-03-12T18:53:34.340Z,66.20
2023-03-12T18:56:03.012Z,66.18
2023-03-12T18:58:31.580Z,66.05
2023-03-12T19:01:00.493Z,66.27
2023-03-12T19:03:33.839Z,68.38
2023-03-12T19:06:11.464Z,68.51
2023-03-12T19:08:40.705Z,67.74
2023-03-12T19:11:14.588Z,67.25
2023-03-12T19:13:43.725Z,67.32
2023-03-12T19:16:12.940Z,67.41
2023-03-12T19:18:42.032Z,67.46
2023-03-12T19:21:10.630Z,67.50
2023-03-12T19:23:40.633Z,67.51
2023-03-12T19:26:09.215Z,67.50
2023-03-12T19:28:39.393Z,67.47
2023-03-12T19:31:11.922Z,67.49
2023-03-12T19:33:44.066Z,67.71
2023-03-12T19:36:12.650Z,67.80
2023-03-12T19:38:42.175Z,67.96
2023-03-12T19:41:11.229Z,68.20
2023-03-12T19:43:41.591Z,68.92
2023-03-12T19:46:12.608Z,69.68
2023-03-12T19:48:48.604Z,70.32
2023-03-12T19:51:23.082Z,71.18
2023-03-12T19:53:53.411Z,71.45
2023-03-12T19:56:28.945Z,71.58
2023-03-12T19:58:58.876Z,72.18
2023-03-12T20:01:31.854Z,72.61
2023-03-12T20:04:02.555Z,73.34
2023-03-12T20:06:33.022Z,74.27
2023-03-12T20:09:03.177Z,74.60
2023-03-12T20:11:36.042Z,74.70
2023-03-12T20:14:06.855Z,74.60
2023-03-12T20:16:37.950Z,74.20
2023-03-12T20:19:07.452Z,73.42
2023-03-12T20:21:43.347Z,73.00
2023-03-12T20:24:13.860Z,72.69
2023-03-12T20:26:43.440Z,72.38
2023-03-12T20:29:11.868Z,72.62
2023-03-12T20:31:42.918Z,73.36
2023-03-12T20:34:11.301Z,74.32
2023-03-12T20:36:39.631Z,74.35
2023-03-12T20:39:08.118Z,73.59
2023-03-12T20:41:36.764Z,72.99
2023-03-12T20:44:05.194Z,72.70
2023-03-12T20:46:33.714Z,72.68
2023-03-12T20:49:02.211Z,72.91
2023-03-12T20:51:34.639Z,73.26
2023-03-12T20:54:03.634Z,73.54
2023-03-12T20:56:32.131Z,73.23
2023-03-12T20:59:00.767Z,72.54
2023-03-12T21:01:29.079Z,71.85
2023-03-12T21:03:58.549Z,71.47
2023-03-12T21:06:27.634Z,70.40
2023-03-12T21:08:56.895Z,69.93
2023-03-12T21:11:26.909Z,69.22
2023-03-12T21:13:55.352Z,68.00
2023-03-12T21:16:23.993Z,67.46
2023-03-12T21:21:38.876Z,65.61
2023-03-12T21:24:07.213Z,65.33
2023-03-12T21:26:35.703Z,64.82
2023-03-12T21:29:04.475Z,64.74
2023-03-12T21:31:32.852Z,64.20
2023-03-12T21:34:01.055Z,63.69
2023-03-12T21:36:29.886Z,63.49
2023-03-12T21:39:01.185Z,62.99
2023-03-12T21:41:29.373Z,62.73
2023-03-12T21:44:02.457Z,62.35
2023-03-12T21:46:31.216Z,62.02
2023-03-12T21:48:59.526Z,61.91
2023-03-12T21:51:27.862Z,61.77
2023-03-12T21:53:57.728Z,61.73
2023-03-12T21:56:30.410Z,61.57
2023-03-12T21:58:59.521Z,61.15
2023-03-12T22:01:28.445Z,60.06
2023-03-12T22:03:56.655Z,60.41
2023-03-12T22:06:25.088Z,60.29
2023-03-12T22:08:53.398Z,60.24
2023-03-12T22:11:22.640Z,60.41
2023-03-12T22:13:50.970Z,60.48
2023-03-12T22:16:19.937Z,60.52
2023-03-12T22:18:48.316Z,60.64
2023-03-12T22:21:22.371Z,60.57
2023-03-12T22:23:52.881Z,60.36
2023-03-12T22:26:23.597Z,60.36
2023-03-12T22:28:57.548Z,60.31
2023-03-12T22:31:27.714Z,60.30
2023-03-12T22:33:56.798Z,60.16
2023-03-12T22:36:25.071Z,60.01
2023-03-12T22:38:53.432Z,60.10
2023-03-12T22:41:23.420Z,60.18
2023-03-12T22:43:54.120Z,60.18
2023-03-12T22:46:25.132Z,60.29
2023-03-12T22:49:01.454Z,60.03
2023-03-12T22:51:31.715Z,59.84
2023-03-12T22:54:00.492Z,59.72
2023-03-12T22:56:29.181Z,59.84
2023-03-12T22:58:57.572Z,59.84
2023-03-12T23:01:26.337Z,59.86
2023-03-12T23:03:54.763Z,59.81
2023-03-12T23:06:25.957Z,59.53
2023-03-12T23:08:55.148Z,59.66
2023-03-12T23:11:25.654Z,59.78
2023-03-12T23:13:54.480Z,59.84
2023-03-12T23:16:25.786Z,59.23
2023-03-12T23:18:55.276Z,59.43
2023-03-12T23:21:24.386Z,59.35
2023-03-12T23:23:53.214Z,59.22
2023-03-12T23:26:24.559Z,59.16
2023-03-12T23:28:58.116Z,58.94
2023-03-12T23:31:28.634Z,59.06
2023-03-12T23:33:58.624Z,59.50
2023-03-12T23:36:27.569Z,59.62
2023-03-12T23:38:56.335Z,59.76
2023-03-12T23:41:29.533Z,59.57
2023-03-12T23:43:59.005Z,59.62
2023-03-12T23:46:27.984Z,59.63
2023-03-12T23:48:57.198Z,59.69
2023-03-12T23:51:34.256Z,59.70
2023-03-12T23:54:07.226Z,59.97
2023-03-12T23:56:38.341Z,59.96
2023-03-12T23:59:08.644Z,60.06
